createdAt,value
2018-09-17T00:00:05.256Z,1003.47
2018-09-17T00:01:15.222Z,1003.48
2018-09-17T00:02:25.323Z,1003.45
2018-09-17T00:03:35.408Z,1003.45
2018-09-17T00:04:45.504Z,1003.44
2018-09-17T00:05:55.576Z,1003.44
2018-09-17T00:07:05.650Z,1003.43
2018-09-17T00:08:15.730Z,1003.44
2018-09-17T00:09:25.552Z,1003.41
2018-09-17T00:10:35.635Z,1003.44
2018-09-17T00:11:45.745Z,1003.37
2018-09-17T00:12:55.835Z,1003.36
2018-09-17T00:14:05.998Z,1003.4
2018-09-17T00:15:16.058Z,1003.4
2018-09-17T00:16:26.129Z,1003.45
2018-09-17T00:17:36.229Z,1003.37
2018-09-17T00:18:46.296Z,1003.39
2018-09-17T00:19:56.377Z,1003.42
2018-09-17T00:21:06.443Z,1003.4
2018-09-17T00:22:16.513Z,1003.39
2018-09-17T00:23:26.387Z,1003.38
2018-09-17T00:24:36.486Z,1003.39
2018-09-17T00:25:46.539Z,1003.36
2018-09-17T00:26:56.621Z,1003.35
2018-09-17T00:28:06.705Z,1003.32
2018-09-17T00:29:16.831Z,1003.3
2018-09-17T00:30:26.915Z,1003.31
2018-09-17T00:31:37.043Z,1003.28
2018-09-17T00:32:46.855Z,1003.28
2018-09-17T00:33:56.924Z,1003.25
2018-09-17T00:35:07.245Z,1003.29
2018-09-17T00:36:17.328Z,1003.26
2018-09-17T00:37:27.402Z,1003.29
2018-09-17T00:38:37.488Z,1003.31
2018-09-17T00:39:47.299Z,1003.29
2018-09-17T00:40:57.111Z,1003.25
2018-09-17T00:42:06.669Z,1003.23
2018-09-17T00:43:16.740Z,1003.24
2018-09-17T00:44:26.551Z,1003.25
2018-09-17T00:45:36.674Z,1003.26
2018-09-17T00:46:46.752Z,1003.28
2018-09-17T00:47:56.585Z,1003.29
2018-09-17T00:49:07.872Z,1003.3
2018-09-17T00:50:17.948Z,1003.27
2018-09-17T00:51:27.800Z,1003.31
2018-09-17T00:52:37.919Z,1003.28
2018-09-17T00:53:48.043Z,1003.28
2018-09-17T00:54:58.106Z,1003.31
2018-09-17T00:56:08.170Z,1003.28
2018-09-17T00:57:18.034Z,1003.29
2018-09-17T00:58:28.093Z,1003.27
2018-09-17T00:59:38.298Z,1003.26
2018-09-17T01:00:48.395Z,1003.28
2018-09-17T01:01:57.945Z,1003.3
2018-09-17T01:03:08.040Z,1003.28
2018-09-17T01:04:18.176Z,1003.29
2018-09-17T01:05:28.155Z,1003.25
2018-09-17T01:06:38.220Z,1003.23
2018-09-17T01:07:48.295Z,1003.3
2018-09-17T01:08:58.417Z,1003.35
2018-09-17T01:10:10.997Z,1003.33
2018-09-17T01:11:20.906Z,1003.32
2018-09-17T01:12:30.978Z,1003.33
2018-09-17T01:13:41.040Z,1003.32
2018-09-17T01:14:51.111Z,1003.34
2018-09-17T01:16:02.546Z,1003.32
2018-09-17T01:17:12.819Z,1003.3
2018-09-17T01:18:22.907Z,1003.31
2018-09-17T01:19:32.988Z,1003.3
2018-09-17T01:20:43.062Z,1003.31
2018-09-17T01:21:53.198Z,1003.33
2018-09-17T01:23:03.254Z,1003.33
2018-09-17T01:24:13.316Z,1003.32
2018-09-17T01:25:23.377Z,1003.42
2018-09-17T01:26:33.858Z,1003.45
2018-09-17T01:27:43.937Z,1003.47
2018-09-17T01:28:53.994Z,1003.46
2018-09-17T01:30:04.066Z,1003.42
2018-09-17T01:31:13.885Z,1003.46
2018-09-17T01:32:23.977Z,1003.4
2018-09-17T01:33:34.096Z,1003.43
2018-09-17T01:34:44.184Z,1003.39
2018-09-17T01:35:54.284Z,1003.35
2018-09-17T01:37:04.361Z,1003.36
2018-09-17T01:38:14.423Z,1003.36
2018-09-17T01:39:24.277Z,1003.34
2018-09-17T01:40:34.337Z,1003.37
2018-09-17T01:41:44.431Z,1003.4
2018-09-17T01:42:54.500Z,1003.42
2018-09-17T01:44:05.054Z,1003.42
2018-09-17T01:45:17.069Z,1003.44
2018-09-17T01:46:27.152Z,1003.47
2018-09-17T01:47:37.214Z,1003.5
2018-09-17T01:48:47.312Z,1003.43
2018-09-17T01:49:57.178Z,1003.4
2018-09-17T01:51:08.664Z,1003.39
2018-09-17T01:52:18.768Z,1003.38
2018-09-17T01:53:28.840Z,1003.37
2018-09-17T01:54:38.908Z,1003.43
2018-09-17T01:55:48.463Z,1003.42
2018-09-17T01:56:58.332Z,1003.44
2018-09-17T01:58:08.141Z,1003.44
2018-09-17T01:59:17.688Z,1003.44
2018-09-17T02:00:27.814Z,1003.42
2018-09-17T02:01:37.888Z,1003.46
2018-09-17T02:02:48.108Z,1003.44
2018-09-17T02:03:58.205Z,1003.44
2018-09-17T02:05:08.008Z,1003.45
2018-09-17T02:06:18.082Z,1003.48
2018-09-17T02:07:27.943Z,1003.49
2018-09-17T02:08:38.074Z,1003.45
2018-09-17T02:09:48.084Z,1003.44
2018-09-17T02:10:58.462Z,1003.45
2018-09-17T02:12:08.627Z,1003.46
2018-09-17T02:13:18.688Z,1003.45
2018-09-17T02:14:28.878Z,1003.46
2018-09-17T02:15:38.956Z,1003.48
2018-09-17T02:16:49.043Z,1003.51
2018-09-17T02:17:59.156Z,1003.55
2018-09-17T02:19:09.961Z,1003.55
2018-09-17T02:20:19.821Z,1003.59
2018-09-17T02:21:29.892Z,1003.59
2018-09-17T02:22:39.709Z,1003.59
2018-09-17T02:23:49.524Z,1003.58
2018-09-17T02:24:59.606Z,1003.61
2018-09-17T02:26:09.819Z,1003.61
2018-09-17T02:27:19.879Z,1003.59
2018-09-17T02:28:29.961Z,1003.62
2018-09-17T02:29:40.030Z,1003.62
2018-09-17T02:30:50.082Z,1003.65
2018-09-17T02:31:59.942Z,1003.69
2018-09-17T02:33:09.757Z,1003.67
2018-09-17T02:34:19.839Z,1003.68
2018-09-17T02:35:29.919Z,1003.66
2018-09-17T02:36:39.993Z,1003.68
2018-09-17T02:37:50.151Z,1003.67
2018-09-17T02:38:59.688Z,1003.67
2018-09-17T02:40:10.505Z,1003.62
2018-09-17T02:41:20.332Z,1003.66
2018-09-17T02:42:30.468Z,1003.63
2018-09-17T02:43:40.577Z,1003.61
2018-09-17T02:44:50.386Z,1003.59
2018-09-17T02:46:02.097Z,1003.6
2018-09-17T02:47:11.904Z,1003.57
2018-09-17T02:48:21.721Z,1003.57
2018-09-17T02:49:31.864Z,1003.58
2018-09-17T02:50:41.936Z,1003.63
2018-09-17T02:51:52.012Z,1003.62
2018-09-17T02:53:02.083Z,1003.62
2018-09-17T02:54:12.215Z,1003.64
2018-09-17T02:55:22.294Z,1003.66
2018-09-17T02:56:32.386Z,1003.67
2018-09-17T02:57:42.199Z,1003.66
2018-09-17T02:58:52.278Z,1003.63
2018-09-17T03:00:04.813Z,1003.65
2018-09-17T03:01:14.948Z,1003.64
2018-09-17T03:02:25.034Z,1003.6
2018-09-17T03:34:54.241Z,1003.86
2018-09-17T03:36:04.316Z,1003.87
2018-09-17T03:37:14.401Z,1003.88
2018-09-17T03:38:24.468Z,1003.92
2018-09-17T03:39:34.552Z,1003.92
2018-09-17T03:40:44.676Z,1003.9
2018-09-17T03:41:54.736Z,1003.92
2018-09-17T03:43:04.812Z,1003.94
2018-09-17T03:44:14.875Z,1003.91
2018-09-17T03:45:24.695Z,1003.93
2018-09-17T03:46:34.651Z,1003.93
2018-09-17T03:47:45.597Z,1003.94
2018-09-17T03:48:55.817Z,1003.9
2018-09-17T03:50:06.454Z,1003.88
2018-09-17T03:51:16.544Z,1003.92
2018-09-17T03:52:26.364Z,1003.94
2018-09-17T03:53:36.441Z,1004.02
2018-09-17T03:54:46.522Z,1003.99
2018-09-17T03:55:56.580Z,1004.03
2018-09-17T03:57:08.328Z,1004.03
2018-09-17T03:58:18.394Z,1004.05
2018-09-17T03:59:28.194Z,1004.07
2018-09-17T04:00:38.275Z,1004.05
2018-09-17T04:01:48.470Z,1004.04
2018-09-17T04:02:58.273Z,1004.03
2018-09-17T04:04:08.378Z,1004.05
2018-09-17T04:05:18.467Z,1004.03
2018-09-17T04:06:28.525Z,1004.04
2018-09-17T04:07:38.599Z,1004.06
2018-09-17T04:08:48.660Z,1004.04
2018-09-17T04:09:58.468Z,1004.03
2018-09-17T04:11:09.007Z,1004.06
2018-09-17T04:12:19.090Z,1004.03
2018-09-17T04:13:29.168Z,1004.05
2018-09-17T04:14:38.979Z,1004.04
2018-09-17T04:15:49.120Z,1004.03
2018-09-17T04:16:58.934Z,1004.02
2018-09-17T04:18:08.914Z,1004.02
2018-09-17T04:19:18.991Z,1004.02
2018-09-17T04:20:29.062Z,1004.04
2018-09-17T04:21:39.182Z,1004.1
2018-09-17T04:22:49.257Z,1004.1
2018-09-17T04:23:59.347Z,1004.13
2018-09-17T04:25:09.428Z,1004.08
2018-09-17T04:26:19.520Z,1004.12
2018-09-17T04:27:29.374Z,1004.12
2018-09-17T04:28:39.450Z,1004.11
2018-09-17T04:29:49.526Z,1004.16
2018-09-17T04:30:59.624Z,1004.2
2018-09-17T04:32:10.754Z,1004.18
2018-09-17T04:33:20.827Z,1004.18
2018-09-17T04:34:30.107Z,1004.21
2018-09-17T04:35:40.222Z,1004.22
2018-09-17T04:36:50.290Z,1004.21
2018-09-17T04:38:00.421Z,1004.24
2018-09-17T04:39:10.283Z,1004.25
2018-09-17T04:40:20.424Z,1004.25
2018-09-17T04:41:30.232Z,1004.26
2018-09-17T04:42:40.326Z,1004.26
2018-09-17T04:43:50.424Z,1004.29
2018-09-17T04:45:00.488Z,1004.28
2018-09-17T04:46:10.568Z,1004.32
2018-09-17T04:47:20.385Z,1004.29
2018-09-17T04:48:30.448Z,1004.33
2018-09-17T04:49:40.260Z,1004.33
2018-09-17T04:50:50.332Z,1004.38
2018-09-17T04:52:00.964Z,1004.4
2018-09-17T04:53:11.052Z,1004.41
2018-09-17T04:54:20.855Z,1004.41
2018-09-17T04:55:30.948Z,1004.39
2018-09-17T04:56:41.026Z,1004.41
2018-09-17T04:57:51.103Z,1004.42
2018-09-17T04:59:02.921Z,1004.48
2018-09-17T05:00:13.008Z,1004.43
2018-09-17T05:01:22.847Z,1004.44
2018-09-17T05:02:32.933Z,1004.46
2018-09-17T05:03:42.735Z,1004.49
2018-09-17T05:04:52.546Z,1004.49
2018-09-17T05:06:02.608Z,1004.48
2018-09-17T05:07:12.517Z,1004.51
2018-09-17T05:08:22.976Z,1004.48
2018-09-17T05:09:33.143Z,1004.48
2018-09-17T05:10:43.217Z,1004.51
2018-09-17T05:11:53.303Z,1004.5
2018-09-17T05:13:03.461Z,1004.54
2018-09-17T05:14:14.222Z,1004.61
2018-09-17T05:15:24.285Z,1004.6
2018-09-17T05:16:34.359Z,1004.59
2018-09-17T05:17:44.441Z,1004.62
2018-09-17T05:18:54.248Z,1004.64
2018-09-17T05:20:04.320Z,1004.58
2018-09-17T05:21:14.401Z,1004.62
2018-09-17T05:22:24.476Z,1004.65
2018-09-17T05:23:34.293Z,1004.6
2018-09-17T05:24:44.363Z,1004.63
2018-09-17T05:25:54.451Z,1004.62
2018-09-17T05:27:05.544Z,1004.64
2018-09-17T05:28:15.628Z,1004.66
2018-09-17T05:29:25.707Z,1004.69
2018-09-17T05:30:35.777Z,1004.68
2018-09-17T05:31:45.916Z,1004.71
2018-09-17T05:32:56.018Z,1004.74
2018-09-17T05:34:06.656Z,1004.74
2018-09-17T05:35:16.765Z,1004.74
2018-09-17T05:36:26.866Z,1004.81
2018-09-17T05:37:36.711Z,1004.77
2018-09-17T05:38:46.897Z,1004.76
2018-09-17T05:39:56.724Z,1004.76
2018-09-17T05:41:08.372Z,1004.81
2018-09-17T05:42:18.177Z,1004.79
2018-09-17T05:43:27.989Z,1004.82
2018-09-17T05:44:38.068Z,1004.79
2018-09-17T05:45:48.147Z,1004.84
2018-09-17T05:46:58.215Z,1004.83
2018-09-17T05:48:08.391Z,1004.85
2018-09-17T05:49:18.475Z,1004.86
2018-09-17T05:50:28.296Z,1004.86
2018-09-17T05:51:38.102Z,1004.89
2018-09-17T05:52:47.933Z,1004.93
2018-09-17T05:53:58.115Z,1004.87
2018-09-17T05:55:07.970Z,1004.9
2018-09-17T05:56:17.886Z,1004.94
2018-09-17T05:57:27.717Z,1004.95
2018-09-17T05:58:37.805Z,1004.95
2018-09-17T05:59:47.905Z,1004.91
2018-09-17T06:00:57.977Z,1004.9
2018-09-17T06:02:07.795Z,1004.93
2018-09-17T06:03:17.873Z,1004.92
2018-09-17T06:04:28.010Z,1004.93
2018-09-17T06:05:38.171Z,1004.93
2018-09-17T06:06:48.625Z,1004.94
2018-09-17T06:07:58.706Z,1004.92
2018-09-17T06:09:10.752Z,1004.93
2018-09-17T06:10:20.577Z,1004.96
2018-09-17T06:11:30.664Z,1004.97
2018-09-17T06:12:40.582Z,1004.96
2018-09-17T06:13:50.655Z,1005.01
2018-09-17T06:15:01.320Z,1005.03
2018-09-17T06:16:11.443Z,1005.03
2018-09-17T06:17:21.548Z,1005.05
2018-09-17T06:18:32.256Z,1005.07
2018-09-17T06:19:42.325Z,1005.05
2018-09-17T06:20:52.410Z,1005.07
2018-09-17T06:22:02.486Z,1005.1
2018-09-17T06:23:12.585Z,1005.13
2018-09-17T06:24:22.905Z,1005.16
2018-09-17T06:25:33.037Z,1005.2
2018-09-17T06:26:43.260Z,1005.23
2018-09-17T06:27:53.107Z,1005.22
2018-09-17T06:29:03.428Z,1005.21
2018-09-17T06:30:13.504Z,1005.26
2018-09-17T06:31:23.316Z,1005.25
2018-09-17T06:32:33.133Z,1005.24
2018-09-17T06:33:43.238Z,1005.22
2018-09-17T06:34:53.319Z,1005.23
2018-09-17T06:36:05.607Z,1005.27
2018-09-17T06:37:16.049Z,1005.22
2018-09-17T06:38:25.865Z,1005.21
2018-09-17T06:39:35.957Z,1005.23
2018-09-17T06:40:46.039Z,1005.17
2018-09-17T06:41:56.101Z,1005.2
2018-09-17T06:43:07.222Z,1005.24
2018-09-17T06:44:17.299Z,1005.23
2018-09-17T06:45:27.365Z,1005.28
2018-09-17T06:46:37.186Z,1005.29
2018-09-17T06:47:47.274Z,1005.34
2018-09-17T06:48:57.352Z,1005.39
2018-09-17T06:50:07.427Z,1005.41
2018-09-17T06:51:17.640Z,1005.44
2018-09-17T06:52:27.672Z,1005.44
2018-09-17T06:53:37.733Z,1005.44
2018-09-17T06:54:48.001Z,1005.46
2018-09-17T06:55:58.081Z,1005.46
2018-09-17T06:57:08.800Z,1005.46
2018-09-17T06:58:18.438Z,1005.47
2018-09-17T06:59:28.248Z,1005.47
2018-09-17T07:00:38.317Z,1005.49
2018-09-17T07:01:48.422Z,1005.49
2018-09-17T07:02:58.597Z,1005.46
2018-09-17T07:04:08.405Z,1005.48
2018-09-17T07:05:18.488Z,1005.51
2018-09-17T07:06:28.553Z,1005.53
2018-09-17T07:07:38.640Z,1005.49
2018-09-17T07:08:48.779Z,1005.46
2018-09-17T07:09:58.872Z,1005.45
2018-09-17T07:11:11.244Z,1005.45
2018-09-17T07:12:21.063Z,1005.46
2018-09-17T07:13:30.872Z,1005.49
2018-09-17T07:14:40.788Z,1005.5
2018-09-17T07:15:50.862Z,1005.48
2018-09-17T07:17:00.828Z,1005.48
2018-09-17T07:18:10.942Z,1005.5
2018-09-17T07:19:21.141Z,1005.51
2018-09-17T07:20:31.207Z,1005.56
2018-09-17T07:21:41.022Z,1005.58
2018-09-17T07:22:51.125Z,1005.55
2018-09-17T07:24:01.201Z,1005.56
2018-09-17T07:25:11.314Z,1005.61
2018-09-17T07:26:21.383Z,1005.58
2018-09-17T07:27:31.454Z,1005.61
2018-09-17T07:28:41.538Z,1005.59
2018-09-17T07:29:51.615Z,1005.64
2018-09-17T07:31:01.693Z,1005.66
2018-09-17T07:32:11.773Z,1005.64
2018-09-17T07:33:21.822Z,1005.66
2018-09-17T07:34:31.899Z,1005.66
2018-09-17T07:35:42.019Z,1005.66
2018-09-17T07:36:52.100Z,1005.7
2018-09-17T07:38:02.178Z,1005.65
2018-09-17T07:39:12.282Z,1005.65
2018-09-17T07:40:22.387Z,1005.66
2018-09-17T07:41:32.212Z,1005.62
2018-09-17T07:42:42.310Z,1005.58
2018-09-17T07:43:52.583Z,1005.56
2018-09-17T07:45:02.715Z,1005.58
2018-09-17T07:46:12.777Z,1005.56
2018-09-17T07:47:22.859Z,1005.59
2018-09-17T07:48:32.944Z,1005.57
2018-09-17T07:49:42.916Z,1005.55
2018-09-17T07:50:52.722Z,1005.55
2018-09-17T07:52:02.277Z,1005.55
2018-09-17T07:53:12.437Z,1005.48
2018-09-17T07:54:22.756Z,1005.52
2018-09-17T07:55:32.564Z,1005.49
2018-09-17T07:56:42.632Z,1005.47
2018-09-17T07:57:52.470Z,1005.49
2018-09-17T07:59:03.871Z,1005.48
2018-09-17T08:00:13.954Z,1005.57
2018-09-17T08:01:24.150Z,1005.59
2018-09-17T08:02:34.239Z,1005.6
2018-09-17T08:03:44.321Z,1005.67
2018-09-17T08:04:54.403Z,1005.7
2018-09-17T08:06:04.215Z,1005.68
2018-09-17T08:07:14.049Z,1005.68
2018-09-17T08:08:24.083Z,1005.68
2018-09-17T08:09:33.932Z,1005.69
2018-09-17T08:10:43.752Z,1005.61
2018-09-17T08:11:53.834Z,1005.61
2018-09-17T08:13:04.004Z,1005.59
2018-09-17T08:14:14.093Z,1005.6
2018-09-17T08:15:24.173Z,1005.59
2018-09-17T08:16:33.988Z,1005.57
2018-09-17T08:17:43.547Z,1005.6
2018-09-17T08:18:53.627Z,1005.59
2018-09-17T08:20:03.499Z,1005.55
2018-09-17T08:21:13.336Z,1005.55
2018-09-17T08:22:23.410Z,1005.58
2018-09-17T08:23:33.279Z,1005.58
2018-09-17T08:24:43.419Z,1005.55
2018-09-17T08:25:53.515Z,1005.55
2018-09-17T08:27:04.462Z,1005.54
2018-09-17T08:28:14.570Z,1005.56
2018-09-17T08:29:24.378Z,1005.52
2018-09-17T08:30:34.526Z,1005.5
2018-09-17T08:31:44.390Z,1005.53
2018-09-17T08:32:54.207Z,1005.52
2018-09-17T08:34:04.311Z,1005.54
2018-09-17T08:35:14.110Z,1005.51
2018-09-17T08:36:23.771Z,1005.53
2018-09-17T08:37:33.841Z,1005.47
2018-09-17T08:38:43.672Z,1005.48
2018-09-17T08:39:53.210Z,1005.51
2018-09-17T08:41:03.012Z,1005.45
2018-09-17T08:42:12.295Z,1005.43
2018-09-17T08:43:22.116Z,1005.43
2018-09-17T08:44:32.194Z,1005.43
2018-09-17T08:45:42.044Z,1005.48
2018-09-17T08:46:52.332Z,1005.49
2018-09-17T08:48:02.143Z,1005.49
2018-09-17T08:49:12.242Z,1005.49
2018-09-17T08:50:22.044Z,1005.47
2018-09-17T08:51:32.115Z,1005.45
2018-09-17T08:52:41.961Z,1005.43
2018-09-17T08:53:52.026Z,1005.44
2018-09-17T08:55:02.112Z,1005.4
2018-09-17T08:56:12.000Z,1005.4
2018-09-17T08:57:21.808Z,1005.42
2018-09-17T08:58:31.961Z,1005.41
2018-09-17T08:59:41.783Z,1005.37
2018-09-17T09:00:51.888Z,1005.36
2018-09-17T09:02:02.015Z,1005.37
2018-09-17T09:03:12.097Z,1005.38
2018-09-17T09:04:21.914Z,1005.36
2018-09-17T09:05:31.730Z,1005.39
2018-09-17T09:06:41.990Z,1005.37
2018-09-17T09:07:52.070Z,1005.33
2018-09-17T09:09:03.295Z,1005.39
2018-09-17T09:10:13.421Z,1005.37
2018-09-17T09:11:23.500Z,1005.35
2018-09-17T09:12:33.585Z,1005.3
2018-09-17T09:13:43.491Z,1005.32
2018-09-17T09:14:53.314Z,1005.3
2018-09-17T09:16:03.421Z,1005.3
2018-09-17T09:17:13.503Z,1005.31
2018-09-17T09:18:23.405Z,1005.26
2018-09-17T09:19:33.544Z,1005.28
2018-09-17T09:20:44.211Z,1005.22
2018-09-17T09:21:54.300Z,1005.18
2018-09-17T09:23:04.122Z,1005.21
2018-09-17T09:24:14.225Z,1005.2
2018-09-17T09:25:24.294Z,1005.19
2018-09-17T09:26:34.388Z,1005.18
2018-09-17T09:27:44.223Z,1005.23
2018-09-17T09:28:54.320Z,1005.25
2018-09-17T09:30:05.915Z,1005.23
2018-09-17T09:31:15.993Z,1005.2
2018-09-17T09:32:26.130Z,1005.2
2018-09-17T09:33:36.209Z,1005.18
2018-09-17T09:34:46.524Z,1005.19
2018-09-17T09:35:56.379Z,1005.17
2018-09-17T09:37:06.687Z,1005.12
2018-09-17T09:38:16.801Z,1005.13
2018-09-17T09:39:26.679Z,1005.12
2018-09-17T09:40:36.754Z,1005.1
2018-09-17T09:41:46.890Z,1005.05
2018-09-17T09:42:56.977Z,1005.03
2018-09-17T09:44:07.067Z,1005.01
2018-09-17T09:45:16.877Z,1004.99
2018-09-17T09:46:26.753Z,1005
2018-09-17T09:47:37.040Z,1004.93
2018-09-17T09:48:47.129Z,1004.92
2018-09-17T09:49:56.823Z,1004.9
2018-09-17T09:51:06.897Z,1004.94
2018-09-17T09:52:16.734Z,1004.89
2018-09-17T09:53:26.826Z,1004.89
2018-09-17T09:54:36.396Z,1004.84
2018-09-17T09:55:46.226Z,1004.81
2018-09-17T09:56:56.292Z,1004.78
2018-09-17T09:58:06.367Z,1004.84
2018-09-17T09:59:16.445Z,1004.77
2018-09-17T10:00:26.558Z,1004.75
2018-09-17T10:01:36.708Z,1004.76
2018-09-17T10:02:46.797Z,1004.82
2018-09-17T10:03:56.872Z,1004.78
2018-09-17T10:05:07.102Z,1004.79
2018-09-17T10:06:16.924Z,1004.78
2018-09-17T10:07:27.003Z,1004.74
2018-09-17T10:08:37.067Z,1004.75
2018-09-17T10:09:47.148Z,1004.69
2018-09-17T10:10:57.234Z,1004.68
2018-09-17T10:12:07.308Z,1004.67
2018-09-17T10:13:17.154Z,1004.65
2018-09-17T10:14:27.254Z,1004.66
2018-09-17T10:15:37.344Z,1004.66
2018-09-17T10:16:47.426Z,1004.66
2018-09-17T10:17:57.633Z,1004.7
2018-09-17T10:19:07.712Z,1004.62
2018-09-17T10:20:17.986Z,1004.65
2018-09-17T10:21:27.798Z,1004.62
2018-09-17T10:22:37.932Z,1004.65
2018-09-17T10:23:48.021Z,1004.65
2018-09-17T10:24:57.826Z,1004.66
2018-09-17T10:26:08.496Z,1004.63
2018-09-17T10:27:18.590Z,1004.59
2018-09-17T10:28:28.795Z,1004.56
2018-09-17T10:29:38.351Z,1004.57
2018-09-17T10:30:48.532Z,1004.59
2018-09-17T10:31:58.361Z,1004.55
2018-09-17T10:33:08.190Z,1004.54
2018-09-17T10:34:18.328Z,1004.55
2018-09-17T10:35:28.409Z,1004.5
2018-09-17T10:36:38.496Z,1004.54
2018-09-17T10:37:48.294Z,1004.59
2018-09-17T10:38:58.373Z,1004.55
2018-09-17T10:40:08.544Z,1004.55
2018-09-17T10:41:19.076Z,1004.56
2018-09-17T10:42:29.184Z,1004.52
2018-09-17T10:43:38.996Z,1004.48
2018-09-17T10:44:48.803Z,1004.49
2018-09-17T10:45:58.359Z,1004.46
2018-09-17T10:47:08.464Z,1004.5
2018-09-17T10:48:18.342Z,1004.44
2018-09-17T10:49:28.199Z,1004.54
2018-09-17T10:50:38.063Z,1004.53
2018-09-17T10:51:48.320Z,1004.54
2018-09-17T10:52:58.420Z,1004.5
2018-09-17T10:54:08.501Z,1004.52
2018-09-17T10:55:18.631Z,1004.53
2018-09-17T10:56:28.528Z,1004.53
2018-09-17T10:57:38.402Z,1004.47
2018-09-17T10:58:48.250Z,1004.51
2018-09-17T10:59:58.072Z,1004.48
2018-09-17T11:01:08.156Z,1004.46
2018-09-17T11:02:18.254Z,1004.48
2018-09-17T11:03:28.441Z,1004.41
2018-09-17T11:04:38.520Z,1004.36
2018-09-17T11:05:48.610Z,1004.39
2018-09-17T11:06:58.700Z,1004.36
2018-09-17T11:08:08.825Z,1004.39
2018-09-17T11:09:19.133Z,1004.37
2018-09-17T11:10:29.231Z,1004.36
2018-09-17T11:11:39.057Z,1004.34
2018-09-17T11:12:49.168Z,1004.34
2018-09-17T11:13:59.268Z,1004.3
2018-09-17T11:15:09.416Z,1004.29
2018-09-17T11:16:18.986Z,1004.28
2018-09-17T11:17:28.949Z,1004.31
2018-09-17T11:18:39.376Z,1004.29
2018-09-17T11:19:49.238Z,1004.31
2018-09-17T11:20:59.420Z,1004.28
2018-09-17T11:22:09.491Z,1004.25
2018-09-17T11:23:19.360Z,1004.31
2018-09-17T11:24:29.499Z,1004.31
2018-09-17T11:25:39.860Z,1004.27
2018-09-17T11:26:50.001Z,1004.32
2018-09-17T11:28:00.117Z,1004.31
2018-09-17T11:29:10.276Z,1004.31
2018-09-17T11:30:20.374Z,1004.32
2018-09-17T11:31:30.248Z,1004.36
2018-09-17T11:32:40.580Z,1004.37
2018-09-17T11:33:50.665Z,1004.34
2018-09-17T11:35:01.635Z,1004.36
2018-09-17T11:36:11.456Z,1004.32
2018-09-17T11:37:21.378Z,1004.29
2018-09-17T11:38:31.573Z,1004.3
2018-09-17T11:39:41.393Z,1004.27
2018-09-17T11:40:51.484Z,1004.29
2018-09-17T11:42:01.318Z,1004.26
2018-09-17T11:43:11.394Z,1004.25
2018-09-17T11:44:21.584Z,1004.26
2018-09-17T11:45:31.742Z,1004.26
2018-09-17T11:46:41.897Z,1004.2
2018-09-17T11:47:52.077Z,1004.26
2018-09-17T11:49:03.395Z,1004.2
2018-09-17T11:50:13.244Z,1004.16
2018-09-17T11:51:23.084Z,1004.17
2018-09-17T11:52:32.899Z,1004.2
2018-09-17T11:53:42.980Z,1004.17
2018-09-17T11:54:52.702Z,1004.13
2018-09-17T11:56:02.843Z,1004.03
2018-09-17T11:57:12.963Z,1004.06
2018-09-17T11:58:22.789Z,1004.05
2018-09-17T11:59:32.869Z,1003.99
2018-09-17T12:00:42.985Z,1003.96
2018-09-17T12:01:53.196Z,1003.98
2018-09-17T12:03:04.499Z,1004
2018-09-17T12:04:14.609Z,1004.02
2018-09-17T12:05:24.728Z,1004.01
2018-09-17T12:06:34.840Z,1003.96
2018-09-17T12:07:44.985Z,1003.94
2018-09-17T12:08:55.168Z,1003.95
2018-09-17T12:10:04.993Z,1003.96
2018-09-17T12:11:15.140Z,1003.94
2018-09-17T12:12:25.355Z,1003.92
2018-09-17T12:13:35.240Z,1003.9
2018-09-17T12:14:45.061Z,1003.89
2018-09-17T12:15:55.139Z,1003.89
2018-09-17T12:17:05.214Z,1003.85
2018-09-17T12:18:15.326Z,1003.82
2018-09-17T12:19:25.513Z,1003.81
2018-09-17T12:20:35.595Z,1003.82
2018-09-17T12:21:45.449Z,1003.78
2018-09-17T12:22:55.539Z,1003.78
2018-09-17T12:24:06.651Z,1003.8
2018-09-17T12:25:16.771Z,1003.79
2018-09-17T12:26:26.852Z,1003.77
2018-09-17T12:27:36.933Z,1003.77
2018-09-17T12:28:47.029Z,1003.76
2018-09-17T12:29:57.131Z,1003.73
2018-09-17T12:31:08.317Z,1003.73
2018-09-17T12:32:18.140Z,1003.7
2018-09-17T12:33:28.005Z,1003.71
2018-09-17T12:34:38.576Z,1003.66
2018-09-17T12:35:48.399Z,1003.68
2018-09-17T12:36:58.548Z,1003.61
2018-09-17T12:38:08.755Z,1003.61
2018-09-17T12:39:19.145Z,1003.64
2018-09-17T12:40:28.988Z,1003.61
2018-09-17T12:41:39.074Z,1003.56
2018-09-17T12:42:49.170Z,1003.58
2018-09-17T12:43:59.252Z,1003.53
2018-09-17T12:45:09.375Z,1003.53
2018-09-17T12:46:19.580Z,1003.47
2018-09-17T12:47:29.685Z,1003.45
2018-09-17T12:48:39.760Z,1003.47
2018-09-17T12:49:49.849Z,1003.47
2018-09-17T12:50:59.706Z,1003.49
2018-09-17T12:52:09.833Z,1003.45
2018-09-17T12:53:19.906Z,1003.43
2018-09-17T12:54:29.996Z,1003.43
2018-09-17T12:55:40.172Z,1003.39
2018-09-17T12:56:49.993Z,1003.42
2018-09-17T12:58:00.081Z,1003.4
2018-09-17T12:59:10.267Z,1003.43
2018-09-17T13:00:20.334Z,1003.42
2018-09-17T13:01:29.886Z,1003.41
2018-09-17T13:02:40.073Z,1003.43
2018-09-17T13:03:50.178Z,1003.41
2018-09-17T13:05:00.341Z,1003.42
2018-09-17T13:06:10.195Z,1003.35
2018-09-17T13:07:20.279Z,1003.38
2018-09-17T13:08:30.366Z,1003.37
2018-09-17T13:09:40.466Z,1003.38
2018-09-17T13:10:50.746Z,1003.36
2018-09-17T13:12:01.223Z,1003.39
2018-09-17T13:13:11.365Z,1003.38
2018-09-17T13:14:21.176Z,1003.37
2018-09-17T13:15:31.018Z,1003.37
2018-09-17T13:16:40.875Z,1003.36
2018-09-17T13:17:50.691Z,1003.38
2018-09-17T13:19:00.673Z,1003.38
2018-09-17T13:20:10.478Z,1003.39
2018-09-17T13:21:20.552Z,1003.38
2018-09-17T13:22:30.650Z,1003.35
2018-09-17T13:23:40.755Z,1003.38
2018-09-17T13:24:50.869Z,1003.43
2018-09-17T13:26:02.637Z,1003.39
2018-09-17T13:27:12.724Z,1003.37
2018-09-17T13:28:22.807Z,1003.34
2018-09-17T13:29:32.961Z,1003.32
2018-09-17T13:30:42.805Z,1003.35
2018-09-17T13:31:53.066Z,1003.38
2018-09-17T13:33:04.497Z,1003.33
2018-09-17T13:34:14.696Z,1003.3
2018-09-17T13:35:24.590Z,1003.28
2018-09-17T13:36:34.684Z,1003.32
2018-09-17T13:37:44.500Z,1003.25
2018-09-17T13:38:54.333Z,1003.26
2018-09-17T13:40:04.816Z,1003.21
2018-09-17T13:41:14.647Z,1003.23
2018-09-17T13:42:24.765Z,1003.21
2018-09-17T13:43:35.032Z,1003.22
2018-09-17T13:44:44.938Z,1003.19
2018-09-17T13:45:54.860Z,1003.19
2018-09-17T13:47:05.006Z,1003.14
2018-09-17T13:48:14.867Z,1003.18
2018-09-17T13:49:24.993Z,1003.14
2018-09-17T13:50:35.232Z,1003.11
2018-09-17T13:51:45.370Z,1003.11
2018-09-17T13:52:55.584Z,1003.07
2018-09-17T13:54:05.244Z,1003.07
2018-09-17T13:55:15.405Z,1003.02
2018-09-17T13:56:25.502Z,1003.02
2018-09-17T13:57:35.330Z,1002.97
2018-09-17T13:58:45.282Z,1002.95
2018-09-17T13:59:55.437Z,1002.98
2018-09-17T14:01:05.731Z,1002.97
2018-09-17T14:02:15.885Z,1003
2018-09-17T14:03:26.119Z,1002.94
2018-09-17T14:04:36.439Z,1002.93
2018-09-17T14:05:46.545Z,1002.95
2018-09-17T14:06:56.663Z,1002.93
2018-09-17T14:08:06.826Z,1002.92
2018-09-17T14:09:16.946Z,1002.93
2018-09-17T14:10:27.141Z,1002.93
2018-09-17T14:11:37.306Z,1002.95
2018-09-17T14:12:47.485Z,1002.91
2018-09-17T14:13:57.311Z,1002.92
2018-09-17T14:15:07.150Z,1002.94
2018-09-17T14:16:17.307Z,1002.95
2018-09-17T14:17:27.453Z,1002.92
2018-09-17T14:18:37.556Z,1002.93
2018-09-17T14:19:47.414Z,1002.86
2018-09-17T14:20:57.519Z,1002.88
2018-09-17T14:22:07.409Z,1002.84
2018-09-17T14:23:17.039Z,1002.83
2018-09-17T14:24:27.186Z,1002.81
2018-09-17T14:25:37.056Z,1002.83
2018-09-17T14:26:47.145Z,1002.81
2018-09-17T14:27:57.084Z,1002.82
2018-09-17T14:29:07.316Z,1002.79
2018-09-17T14:30:17.177Z,1002.76
2018-09-17T14:31:27.007Z,1002.75
2018-09-17T14:32:37.137Z,1002.71
2018-09-17T14:33:47.606Z,1002.69
2018-09-17T14:34:57.168Z,1002.71
2018-09-17T14:36:07.285Z,1002.7
2018-09-17T14:37:17.397Z,1002.64
2018-09-17T14:38:27.265Z,1002.64
2018-09-17T14:39:37.430Z,1002.66
2018-09-17T14:40:47.683Z,1002.62